Time;durP1;ratioP1;P1;durP2;ratioP2;P2;SDS_P1;SDS_P2;PMS_P1;PMS_P2;Temp;Humidity;BMP_temperature;BMP_pressure;BME280_temperature;BME280_humidity;BME280_pressure;Samples;Min_cycle;Max_cycle;Signal;HPM_P1;HPM_P2
2022/07/26 00:00:46;;;;;;;19.88;3.30;;;;;;;;;;5052112;27;95216;-75
2022/07/26 00:03:13;;;;;;;14.98;3.33;;;;;;;;;;5067484;27;96809;-77
2022/07/26 00:05:40;;;;;;;19.08;3.53;;;;;;;;;;5050914;27;97423;-74
2022/07/26 00:08:09;;;;;;;23.48;3.33;;;;;;;;;;5037103;27;95058;-74
2022/07/26 00:10:47;;;;;;;21.17;3.28;;;;;;;;;;5051708;27;97454;-74
2022/07/26 00:13:16;;;;;;;17.33;3.63;;;;;;;;;;5070868;27;95446;-74
2022/07/26 00:15:43;;;;;;;16.75;3.05;;;;;;;;;;5072386;27;97525;-74
2022/07/26 00:18:10;;;;;;;14.38;2.92;;;;;;;;;;5072210;27;97340;-75
2022/07/26 00:20:37;;;;;;;20.85;3.38;;;;;;;;;;5070975;27;95747;-74
2022/07/26 00:23:04;;;;;;;19.35;3.42;;;;;;;;;;5066550;27;96934;-75
2022/07/26 00:25:30;;;;;;;18.30;3.17;;;;;;;;;;5051250;27;97498;-74
2022/07/26 00:27:57;;;;;;;21.92;4.03;;;;;;;;;;5071407;27;95478;-75
2022/07/26 00:30:23;;;;;;;19.10;3.22;;;;;;;;;;5071996;27;97886;-76
2022/07/26 00:32:51;;;;;;;16.92;3.15;;;;;;;;;;5068878;27;95527;-75
2022/07/26 00:35:19;;;;;;;20.77;3.35;;;;;;;;;;5073077;27;97081;-75
2022/07/26 00:37:45;;;;;;;14.52;3.35;;;;;;;;;;5075551;27;97464;-75
2022/07/26 00:40:12;;;;;;;21.13;3.88;;;;;;;;;;5075421;27;95124;-75
2022/07/26 00:42:39;;;;;;;16.70;3.60;;;;;;;;;;5074508;27;96977;-75
2022/07/26 00:45:06;;;;;;;21.17;3.00;;;;;;;;;;5073462;27;97374;-76
2022/07/26 00:47:33;;;;;;;15.23;3.40;;;;;;;;;;5040232;27;98509;-75
2022/07/26 00:50:00;;;;;;;17.45;3.70;;;;;;;;;;5053931;27;96843;-76
2022/07/26 00:52:27;;;;;;;19.90;3.55;;;;;;;;;;5053548;27;95495;-75
2022/07/26 00:54:54;;;;;;;20.85;3.60;;;;;;;;;;5054497;27;97116;-74
2022/07/26 00:57:21;;;;;;;21.00;4.20;;;;;;;;;;5053109;27;97320;-75
2022/07/26 00:59:48;;;;;;;15.38;3.20;;;;;;;;;;5055123;27;95154;-75
2022/07/26 01:02:14;;;;;;;19.65;4.03;;;;;;;;;;5053473;27;97203;-74
2022/07/26 01:04:43;;;;;;;19.88;3.20;;;;;;;;;;5053294;27;97594;-75
2022/07/26 01:07:10;;;;;;;17.15;3.50;;;;;;;;;;5052513;27;95421;-74
2022/07/26 01:09:41;;;;;;;14.93;3.88;;;;;;;;;;5054685;27;96996;-74
2022/07/26 01:12:07;;;;;;;18.20;3.80;;;;;;;;;;5058214;27;97454;-75
2022/07/26 01:14:34;;;;;;;15.70;3.22;;;;;;;;;;5053467;27;96842;-76
2022/07/26 01:17:00;;;;;;;16.13;3.42;;;;;;;;;;5051094;27;97361;-76
2022/07/26 01:19:27;;;;;;;20.35;3.53;;;;;;;;;;5052941;27;95398;-75
2022/07/26 01:21:53;;;;;;;20.30;3.50;;;;;;;;;;5053035;27;96962;-76
2022/07/26 01:24:20;;;;;;;18.52;3.53;;;;;;;;;;5052709;27;97543;-76
2022/07/26 01:26:46;;;;;;;20.55;3.63;;;;;;;;;;5043912;27;95861;-75
2022/07/26 01:29:12;;;;;;;16.75;3.17;;;;;;;;;;5054513;27;97280;-75
2022/07/26 01:31:39;;;;;;;18.92;4.05;;;;;;;;;;5054251;27;97180;-76
2022/07/26 01:34:06;;;;;;;15.77;3.05;;;;;;;;;;5054128;27;95395;-76
2022/07/26 01:36:32;;;;;;;14.63;3.28;;;;;;;;;;5053238;27;97914;-76
2022/07/26 01:38:59;;;;;;;16.75;3.30;;;;;;;;;;5054205;27;95178;-75
2022/07/26 01:41:25;;;;;;;18.17;3.40;;;;;;;;;;5053854;27;96819;-77
2022/07/26 01:44:03;;;;;;;13.80;3.85;;;;;;;;;;5051060;27;97273;-75
2022/07/26 01:46:29;;;;;;;17.38;3.65;;;;;;;;;;5058226;27;95377;-76
2022/07/26 01:48:55;;;;;;;21.70;3.83;;;;;;;;;;5074868;27;97202;-74
2022/07/26 01:51:22;;;;;;;20.55;3.95;;;;;;;;;;5053509;27;98920;-75
2022/07/26 01:53:48;;;;;;;16.15;3.80;;;;;;;;;;5063839;27;95351;-75
2022/07/26 01:56:15;;;;;;;19.40;3.55;;;;;;;;;;5077946;27;97218;-76
2022/07/26 01:58:41;;;;;;;16.13;3.08;;;;;;;;;;5074439;27;95391;-75
2022/07/26 02:01:08;;;;;;;20.48;3.75;;;;;;;;;;5074641;27;97208;-75
2022/07/26 02:03:34;;;;;;;16.27;3.30;;;;;;;;;;5071575;27;97522;-76
2022/07/26 02:06:01;;;;;;;23.73;3.80;;;;;;;;;;5055525;27;95449;-75
2022/07/26 02:08:28;;;;;;;18.00;4.00;;;;;;;;;;5070119;27;96813;-74
2022/07/26 02:11:05;;;;;;;14.85;3.28;;;;;;;;;;5074242;27;97346;-76
2022/07/26 02:13:31;;;;;;;17.80;3.35;;;;;;;;;;5072699;27;95218;-76
2022/07/26 02:15:58;;;;;;;22.85;3.92;;;;;;;;;;5067482;27;97060;-75
2022/07/26 02:18:26;;;;;;;20.25;3.83;;;;;;;;;;5055513;27;95369;-75
2022/07/26 02:20:52;;;;;;;15.30;3.88;;;;;;;;;;5035853;27;97388;-75
2022/07/26 02:23:19;;;;;;;18.75;3.58;;;;;;;;;;5058895;27;97362;-74
2022/07/26 02:25:46;;;;;;;23.55;3.97;;;;;;;;;;5073976;27;95071;-75
2022/07/26 02:28:13;;;;;;;17.95;3.35;;;;;;;;;;5073902;27;96831;-75
2022/07/26 02:30:40;;;;;;;17.33;3.50;;;;;;;;;;5073584;27;97387;-75
2022/07/26 02:33:06;;;;;;;19.95;3.38;;;;;;;;;;5072321;27;95249;-75
2022/07/26 02:35:33;;;;;;;14.77;3.40;;;;;;;;;;5070279;27;96755;-75
2022/07/26 02:38:01;;;;;;;11.38;2.95;;;;;;;;;;5076833;27;97789;-75
2022/07/26 02:40:28;;;;;;;10.05;3.03;;;;;;;;;;5073641;27;96812;-76
2022/07/26 02:42:54;;;;;;;11.68;3.20;;;;;;;;;;5065988;27;97415;-77
2022/07/26 02:45:21;;;;;;;14.98;3.38;;;;;;;;;;5073382;27;95379;-75
2022/07/26 02:47:48;;;;;;;9.32;2.80;;;;;;;;;;5072745;27;96929;-75
2022/07/26 02:50:15;;;;;;;13.18;3.05;;;;;;;;;;5070784;27;96983;-76
2022/07/26 02:52:42;;;;;;;9.43;2.72;;;;;;;;;;5072531;27;95627;-75
2022/07/26 02:55:08;;;;;;;8.98;2.75;;;;;;;;;;5072753;27;96934;-74
2022/07/26 02:57:35;;;;;;;9.23;2.65;;;;;;;;;;5071632;27;97363;-74
2022/07/26 03:00:13;;;;;;;10.20;2.95;;;;;;;;;;5056912;27;95524;-74
2022/07/26 03:02:39;;;;;;;8.95;2.42;;;;;;;;;;5052078;27;97601;-74
2022/07/26 03:05:06;;;;;;;6.40;2.50;;;;;;;;;;5043048;27;95530;-74
2022/07/26 03:07:32;;;;;;;11.15;2.58;;;;;;;;;;5072883;27;96792;-75
2022/07/26 03:09:59;;;;;;;5.43;2.20;;;;;;;;;;5071881;27;97993;-74
2022/07/26 03:12:25;;;;;;;7.05;2.20;;;;;;;;;;5073339;27;95335;-75
2022/07/26 03:14:52;;;;;;;7.60;2.33;;;;;;;;;;5071277;27;96879;-75
2022/07/26 03:17:18;;;;;;;8.15;2.35;;;;;;;;;;5072726;27;97325;-74
2022/07/26 03:19:45;;;;;;;7.53;2.33;;;;;;;;;;5072414;27;95216;-74
2022/07/26 03:22:11;;;;;;;7.30;2.35;;;;;;;;;;5072999;27;96160;-74
2022/07/26 03:24:37;;;;;;;8.57;2.88;;;;;;;;;;5073170;27;95469;-74
2022/07/26 03:27:04;;;;;;;7.68;2.28;;;;;;;;;;5071484;27;96750;-74
2022/07/26 03:29:30;;;;;;;5.53;2.00;;;;;;;;;;5072212;27;96822;-75
2022/07/26 03:31:57;;;;;;;7.78;2.20;;;;;;;;;;5073325;27;95376;-75
2022/07/26 03:34:23;;;;;;;6.43;2.10;;;;;;;;;;5073123;27;96784;-74
2022/07/26 03:36:49;;;;;;;9.77;2.50;;;;;;;;;;5064969;27;97371;-76
2022/07/26 03:39:16;;;;;;;7.65;2.30;;;;;;;;;;5071324;27;95369;-75
2022/07/26 03:41:42;;;;;;;10.68;2.88;;;;;;;;;;5073096;27;97550;-74
2022/07/26 03:44:08;;;;;;;8.23;2.20;;;;;;;;;;5075337;27;97443;-74
2022/07/26 03:46:35;;;;;;;7.03;1.92;;;;;;;;;;5071342;27;96661;-74
2022/07/26 03:49:02;;;;;;;10.00;2.55;;;;;;;;;;5072668;27;97693;-74
2022/07/26 03:51:28;;;;;;;6.57;2.40;;;;;;;;;;5068180;27;96747;-76
2022/07/26 03:53:55;;;;;;;7.32;2.22;;;;;;;;;;5072795;27;97050;-75
2022/07/26 03:56:28;;;;;;;7.88;2.13;;;;;;;;;;5055625;27;97346;-75
2022/07/26 03:58:54;;;;;;;6.90;2.10;;;;;;;;;;5072510;27;95521;-74
2022/07/26 04:01:20;;;;;;;8.73;3.13;;;;;;;;;;5073038;27;97142;-74
2022/07/26 04:03:47;;;;;;;5.55;2.05;;;;;;;;;;5071980;27;98017;-76
2022/07/26 04:06:14;;;;;;;7.28;2.05;;;;;;;;;;5074509;27;95492;-74
2022/07/26 04:08:40;;;;;;;7.13;2.38;;;;;;;;;;5057262;27;97317;-75
2022/07/26 04:11:07;;;;;;;4.57;2.08;;;;;;;;;;5037547;27;95121;-75
2022/07/26 04:13:34;;;;;;;5.70;2.10;;;;;;;;;;5054569;27;97250;-76
2022/07/26 04:16:01;;;;;;;7.40;2.30;;;;;;;;;;5075929;27;97325;-75
2022/07/26 04:18:27;;;;;;;9.75;2.45;;;;;;;;;;5075256;27;96870;-75
2022/07/26 04:20:54;;;;;;;8.68;2.03;;;;;;;;;;5074706;27;97113;-75
2022/07/26 04:23:20;;;;;;;10.50;2.42;;;;;;;;;;5055665;27;97337;-75
2022/07/26 04:25:46;;;;;;;7.05;2.30;;;;;;;;;;5077013;27;95418;-75
2022/07/26 04:28:13;;;;;;;8.02;2.30;;;;;;;;;;5073036;27;97399;-76
2022/07/26 04:30:40;;;;;;;8.38;1.92;;;;;;;;;;5076049;27;95383;-76
2022/07/26 04:33:06;;;;;;;5.45;2.00;;;;;;;;;;5075130;27;95122;-75
2022/07/26 04:35:33;;;;;;;4.57;2.33;;;;;;;;;;5057067;27;97446;-75
2022/07/26 04:38:01;;;;;;;5.13;2.10;;;;;;;;;;5072923;27;97291;-75
2022/07/26 04:40:32;;;;;;;9.13;2.17;;;;;;;;;;5071703;27;97151;-75
2022/07/26 20:27:59;;;;;;;3.60;1.20;;;;;;;;;;5011834;27;1301466;-76
2022/07/26 20:30:25;;;;;;;4.32;1.10;;;;;;;;;;5023265;28;97363;-77
2022/07/26 20:32:51;;;;;;;4.07;1.20;;;;;;;;;;5025509;28;96839;-77
2022/07/26 20:35:18;;;;;;;5.35;1.45;;;;;;;;;;5024108;28;96990;-78
2022/07/26 20:37:44;;;;;;;7.50;1.80;;;;;;;;;;5028540;28;97160;-77
2022/07/26 20:40:11;;;;;;;4.78;1.23;;;;;;;;;;5027900;27;95633;-77
2022/07/26 20:42:40;;;;;;;7.22;1.20;;;;;;;;;;5026917;27;96677;-75
2022/07/26 20:45:10;;;;;;;8.45;1.60;;;;;;;;;;5020604;28;97271;-78
2022/07/26 20:47:41;;;;;;;2.50;1.10;;;;;;;;;;5027919;27;96091;-78
2022/07/26 20:50:08;;;;;;;3.03;1.23;;;;;;;;;;5024498;27;97270;-78
2022/07/26 20:52:35;;;;;;;4.20;1.38;;;;;;;;;;5025526;27;96138;-78
2022/07/26 20:55:01;;;;;;;3.95;1.17;;;;;;;;;;5017675;27;97990;-77
2022/07/26 20:57:28;;;;;;;9.57;1.20;;;;;;;;;;5023200;28;97747;-77
2022/07/26 20:59:54;;;;;;;2.97;0.93;;;;;;;;;;5028830;27;96204;-77
2022/07/26 21:02:20;;;;;;;8.02;1.20;;;;;;;;;;5027857;28;96661;-78
2022/07/26 21:04:47;;;;;;;2.72;1.20;;;;;;;;;;5024083;28;97327;-77
2022/07/26 21:07:13;;;;;;;4.05;1.00;;;;;;;;;;5027272;28;95618;-75
2022/07/26 21:09:39;;;;;;;9.57;1.27;;;;;;;;;;5030671;28;95584;-75
2022/07/26 21:12:06;;;;;;;6.18;1.23;;;;;;;;;;5021939;28;95304;-75
2022/07/26 21:14:32;;;;;;;5.43;1.70;;;;;;;;;;5019962;27;97150;-74
2022/07/26 21:16:59;;;;;;;6.22;1.10;;;;;;;;;;5023399;28;97571;-75
2022/07/26 21:19:25;;;;;;;1.65;0.80;;;;;;;;;;5027964;28;95191;-75
2022/07/26 21:21:55;;;;;;;3.97;1.10;;;;;;;;;;5029196;27;95687;-75
2022/07/26 21:24:22;;;;;;;5.93;1.42;;;;;;;;;;5027833;27;98230;-75
2022/07/26 21:26:48;;;;;;;4.35;1.10;;;;;;;;;;5025315;28;96192;-75
2022/07/26 21:29:14;;;;;;;4.22;1.15;;;;;;;;;;5028943;27;95621;-75
2022/07/26 21:31:41;;;;;;;4.95;1.27;;;;;;;;;;5031298;28;97326;-75
2022/07/26 21:34:07;;;;;;;4.03;1.05;;;;;;;;;;5028711;28;97200;-75
2022/07/26 21:36:36;;;;;;;2.75;1.17;;;;;;;;;;5025682;28;97367;-77
2022/07/26 21:39:03;;;;;;;4.68;1.38;;;;;;;;;;5016481;27;95328;-75
2022/07/26 21:41:29;;;;;;;4.15;1.20;;;;;;;;;;5011016;28;96765;-75
2022/07/26 21:43:55;;;;;;;4.05;1.20;;;;;;;;;;5014198;28;96831;-75
2022/07/26 21:46:22;;;;;;;2.50;1.10;;;;;;;;;;5011821;28;95435;-75
2022/07/26 21:48:48;;;;;;;2.80;1.02;;;;;;;;;;5010768;28;96805;-75
2022/07/26 21:51:15;;;;;;;4.35;1.13;;;;;;;;;;5014830;28;97280;-75
2022/07/26 21:53:42;;;;;;;3.40;1.20;;;;;;;;;;5024903;28;95839;-75
2022/07/26 21:56:10;;;;;;;6.15;1.30;;;;;;;;;;5021699;27;96261;-74
2022/07/26 21:58:36;;;;;;;5.43;1.23;;;;;;;;;;5016514;28;95092;-75
2022/07/26 22:01:04;;;;;;;8.75;1.80;;;;;;;;;;5016944;28;97249;-74
2022/07/26 22:03:33;;;;;;;4.40;1.10;;;;;;;;;;5028355;27;97279;-74
2022/07/26 22:06:00;;;;;;;2.75;1.17;;;;;;;;;;5014084;28;96092;-74
2022/07/26 22:08:26;;;;;;;2.75;1.13;;;;;;;;;;5014502;28;96563;-75
2022/07/26 22:10:52;;;;;;;3.50;1.40;;;;;;;;;;5021220;28;97626;-74
2022/07/26 22:13:19;;;;;;;4.25;1.10;;;;;;;;;;5030246;28;95366;-75
2022/07/26 22:15:46;;;;;;;6.13;1.20;;;;;;;;;;5013449;28;96977;-74
2022/07/26 22:18:13;;;;;;;3.58;1.38;;;;;;;;;;5025435;28;95426;-74
2022/07/26 22:20:39;;;;;;;4.90;1.52;;;;;;;;;;5018175;28;95602;-74
2022/07/26 22:23:07;;;;;;;5.10;1.10;;;;;;;;;;5030151;28;97711;-75
2022/07/26 22:25:34;;;;;;;5.07;1.10;;;;;;;;;;5018021;28;95397;-74
2022/07/26 22:28:01;;;;;;;8.40;1.40;;;;;;;;;;5023039;28;96945;-75
2022/07/26 22:30:27;;;;;;;7.85;1.58;;;;;;;;;;5016929;28;97686;-74
2022/07/26 22:32:55;;;;;;;2.25;1.10;;;;;;;;;;5030611;28;95433;-75
2022/07/26 22:35:22;;;;;;;2.85;1.10;;;;;;;;;;5017958;28;97268;-74
2022/07/26 22:37:48;;;;;;;3.80;1.20;;;;;;;;;;5025360;27;95181;-74
2022/07/26 22:40:15;;;;;;;8.32;1.88;;;;;;;;;;5021121;28;97271;-74
2022/07/26 22:42:43;;;;;;;2.00;1.10;;;;;;;;;;5029111;28;97623;-74
2022/07/26 22:45:10;;;;;;;3.45;1.20;;;;;;;;;;5010318;28;95369;-74
2022/07/26 22:47:36;;;;;;;5.30;1.35;;;;;;;;;;5017680;28;97086;-74
2022/07/26 22:50:12;;;;;;;6.53;1.98;;;;;;;;;;5018405;28;97348;-74
2022/07/26 22:52:40;;;;;;;5.38;1.52;;;;;;;;;;5028870;28;95364;-75
2022/07/26 22:55:07;;;;;;;2.45;1.05;;;;;;;;;;5015975;28;96830;-75
2022/07/26 22:57:33;;;;;;;12.52;1.73;;;;;;;;;;5029791;28;96199;-74
2022/07/26 22:59:59;;;;;;;1.95;1.10;;;;;;;;;;5017311;28;96622;-74
2022/07/26 23:02:26;;;;;;;4.45;1.40;;;;;;;;;;5026284;28;97595;-75
2022/07/26 23:04:52;;;;;;;5.75;1.60;;;;;;;;;;5015319;28;95348;-75
2022/07/26 23:07:19;;;;;;;7.20;1.27;;;;;;;;;;5029233;28;96916;-75
2022/07/26 23:09:46;;;;;;;5.70;1.25;;;;;;;;;;5021492;28;97481;-75
2022/07/26 23:12:13;;;;;;;5.78;1.25;;;;;;;;;;5020880;28;95353;-76
2022/07/26 23:14:39;;;;;;;6.30;2.03;;;;;;;;;;5026236;28;97102;-76
2022/07/26 23:17:05;;;;;;;6.45;1.27;;;;;;;;;;5011664;28;99033;-76
2022/07/26 23:19:32;;;;;;;6.68;1.50;;;;;;;;;;5030644;28;95057;-74
2022/07/26 23:21:58;;;;;;;3.63;1.30;;;;;;;;;;5018643;28;97791;-74
2022/07/26 23:24:24;;;;;;;3.85;1.38;;;;;;;;;;5026121;28;95067;-74
2022/07/26 23:26:51;;;;;;;7.80;1.55;;;;;;;;;;5030713;28;96738;-74
2022/07/26 23:29:17;;;;;;;7.53;1.38;;;;;;;;;;5015901;28;97368;-75
2022/07/26 23:31:43;;;;;;;6.00;1.17;;;;;;;;;;5019512;28;95400;-74
2022/07/26 23:34:10;;;;;;;6.20;1.50;;;;;;;;;;5022357;28;96279;-74
2022/07/26 23:36:36;;;;;;;3.25;1.15;;;;;;;;;;5013317;28;97465;-74
2022/07/26 23:39:03;;;;;;;4.68;1.65;;;;;;;;;;5029338;28;95371;-74
2022/07/26 23:41:29;;;;;;;2.88;1.20;;;;;;;;;;5013712;28;96797;-74
2022/07/26 23:43:56;;;;;;;5.72;1.55;;;;;;;;;;5017798;28;95398;-74
2022/07/26 23:46:23;;;;;;;3.78;1.30;;;;;;;;;;5018882;27;95982;-74
2022/07/26 23:48:50;;;;;;;5.10;1.23;;;;;;;;;;5029534;28;97290;-74
2022/07/26 23:51:18;;;;;;;5.72;1.23;;;;;;;;;;5015603;28;95381;-74
2022/07/26 23:53:44;;;;;;;8.05;1.67;;;;;;;;;;5020138;27;96774;-74
2022/07/26 23:56:11;;;;;;;5.80;1.27;;;;;;;;;;5020697;28;97591;-74
2022/07/26 23:58:37;;;;;;;8.60;1.30;;;;;;;;;;5027614;28;95413;-74
